sensor_id;sensor_type;location;lat;lon;timestamp;pressure;altitude;pressure_sealevel;temperature;humidity
36242;BME280;22283;42.748;12.732;2022-08-25T00:00:48;97935.31;;;21.74;59.67
36242;BME280;22283;42.748;12.732;2022-08-25T00:05:48;97928.72;;;21.77;59.61
36242;BME280;22283;42.748;12.732;2022-08-25T00:10:49;97930.56;;;21.91;59.02
36242;BME280;22283;42.748;12.732;2022-08-25T00:15:50;97928.44;;;21.72;59.71
36242;BME280;22283;42.748;12.732;2022-08-25T00:20:50;97920.69;;;21.62;59.67
36242;BME280;22283;42.748;12.732;2022-08-25T00:25:51;97926.44;;;21.44;59.99
36242;BME280;22283;42.748;12.732;2022-08-25T00:30:52;97921.38;;;21.11;61.85
36242;BME280;22283;42.748;12.732;2022-08-25T00:35:52;97931.44;;;21.32;61.14
36242;BME280;22283;42.748;12.732;2022-08-25T00:40:53;97928.09;;;21.60;60.33
36242;BME280;22283;42.748;12.732;2022-08-25T00:46:07;97936.25;;;21.37;60.57
36242;BME280;22283;42.748;12.732;2022-08-25T00:51:08;97931.03;;;21.21;60.81
36242;BME280;22283;42.748;12.732;2022-08-25T00:56:11;97926.13;;;20.72;62.75
36242;BME280;22283;42.748;12.732;2022-08-25T01:01:12;97938.53;;;20.73;63.15
36242;BME280;22283;42.748;12.732;2022-08-25T01:06:13;97931.63;;;20.93;62.10
36242;BME280;22283;42.748;12.732;2022-08-25T01:11:14;97935.00;;;21.25;62.00
36242;BME280;22283;42.748;12.732;2022-08-25T01:16:15;97917.53;;;21.44;60.76
36242;BME280;22283;42.748;12.732;2022-08-25T01:21:17;97921.28;;;21.20;61.14
36242;BME280;22283;42.748;12.732;2022-08-25T01:26:19;97911.16;;;20.92;62.52
36242;BME280;22283;42.748;12.732;2022-08-25T01:31:20;97913.47;;;21.10;62.21
36242;BME280;22283;42.748;12.732;2022-08-25T01:36:21;97915.69;;;21.06;61.76
36242;BME280;22283;42.748;12.732;2022-08-25T01:41:25;97915.84;;;20.90;62.37
36242;BME280;22283;42.748;12.732;2022-08-25T01:46:31;97904.13;;;21.21;61.74
36242;BME280;22283;42.748;12.732;2022-08-25T01:51:34;97898.66;;;20.99;61.40
36242;BME280;22283;42.748;12.732;2022-08-25T01:56:37;97915.44;;;20.63;62.87
36242;BME280;22283;42.748;12.732;2022-08-25T02:01:38;97910.53;;;20.44;63.63
36242;BME280;22283;42.748;12.732;2022-08-25T02:06:39;97905.34;;;20.66;63.71
36242;BME280;22283;42.748;12.732;2022-08-25T02:11:45;97892.22;;;20.85;62.69
36242;BME280;22283;42.748;12.732;2022-08-25T02:16:47;97904.31;;;20.67;62.90
36242;BME280;22283;42.748;12.732;2022-08-25T02:21:49;97900.09;;;20.49;64.00
36242;BME280;22283;42.748;12.732;2022-08-25T02:26:49;97900.72;;;20.74;63.50
36242;BME280;22283;42.748;12.732;2022-08-25T02:31:50;97907.56;;;21.15;62.14
36242;BME280;22283;42.748;12.732;2022-08-25T02:36:51;97903.19;;;21.13;61.80
36242;BME280;22283;42.748;12.732;2022-08-25T02:41:51;97902.34;;;20.98;62.14
36242;BME280;22283;42.748;12.732;2022-08-25T02:46:52;97892.75;;;20.43;63.50
36242;BME280;22283;42.748;12.732;2022-08-25T02:51:52;97899.53;;;20.31;63.80
36242;BME280;22283;42.748;12.732;2022-08-25T02:56:54;97898.84;;;19.83;65.51
36242;BME280;22283;42.748;12.732;2022-08-25T03:01:54;97908.19;;;19.48;67.50
36242;BME280;22283;42.748;12.732;2022-08-25T03:06:55;97892.72;;;19.97;66.24
36242;BME280;22283;42.748;12.732;2022-08-25T03:11:56;97903.53;;;20.35;65.08
36242;BME280;22283;42.748;12.732;2022-08-25T03:16:56;97904.69;;;20.63;63.93
36242;BME280;22283;42.748;12.732;2022-08-25T03:21:57;97904.69;;;20.63;63.71
36242;BME280;22283;42.748;12.732;2022-08-25T03:26:58;97899.00;;;20.58;63.72
36242;BME280;22283;42.748;12.732;2022-08-25T03:31:59;97900.97;;;20.42;64.47
36242;BME280;22283;42.748;12.732;2022-08-25T03:37:00;97915.41;;;20.18;65.12
36242;BME280;22283;42.748;12.732;2022-08-25T03:42:08;97910.91;;;19.87;66.18
36242;BME280;22283;42.748;12.732;2022-08-25T03:47:09;97907.19;;;19.57;67.23
36242;BME280;22283;42.748;12.732;2022-08-25T03:52:09;97914.44;;;19.40;67.79
36242;BME280;22283;42.748;12.732;2022-08-25T03:57:11;97912.03;;;19.61;67.53
36242;BME280;22283;42.748;12.732;2022-08-25T04:02:13;97922.31;;;19.89;66.81
36242;BME280;22283;42.748;12.732;2022-08-25T04:07:14;97919.41;;;20.22;65.61
36242;BME280;22283;42.748;12.732;2022-08-25T04:12:15;97918.38;;;20.54;64.54
36242;BME280;22283;42.748;12.732;2022-08-25T04:17:16;97918.00;;;20.34;64.13
36242;BME280;22283;42.748;12.732;2022-08-25T04:22:17;97925.88;;;19.81;65.63
36242;BME280;22283;42.748;12.732;2022-08-25T04:29:56;97922.06;;;19.59;66.35
36242;BME280;22283;42.748;12.732;2022-08-25T04:34:57;97926.63;;;19.51;67.61
36242;BME280;22283;42.748;12.732;2022-08-25T04:39:58;97914.06;;;19.51;67.52
36242;BME280;22283;42.748;12.732;2022-08-25T04:44:59;97907.84;;;19.51;67.31
36242;BME280;22283;42.748;12.732;2022-08-25T04:50:01;97915.16;;;19.26;68.46
36242;BME280;22283;42.748;12.732;2022-08-25T04:55:02;97918.16;;;19.31;68.44
36242;BME280;22283;42.748;12.732;2022-08-25T05:00:04;97928.97;;;19.54;67.89
36242;BME280;22283;42.748;12.732;2022-08-25T05:05:05;97919.78;;;20.19;65.56
36242;BME280;22283;42.748;12.732;2022-08-25T05:10:06;97921.31;;;20.67;63.72
36242;BME280;22283;42.748;12.732;2022-08-25T05:15:07;97925.53;;;20.99;62.44
36242;BME280;22283;42.748;12.732;2022-08-25T05:20:27;97916.16;;;20.57;64.72
36242;BME280;22283;42.748;12.732;2022-08-25T05:25:29;97926.19;;;21.01;63.57
36242;BME280;22283;42.748;12.732;2022-08-25T05:30:30;97931.59;;;21.46;62.67
36242;BME280;22283;42.748;12.732;2022-08-25T05:35:31;97923.50;;;21.90;61.15
36242;BME280;22283;42.748;12.732;2022-08-25T05:40:32;97910.16;;;22.40;58.55
36242;BME280;22283;42.748;12.732;2022-08-25T05:45:32;97913.03;;;22.59;59.55
36242;BME280;22283;42.748;12.732;2022-08-25T05:50:33;97907.38;;;22.97;57.66
36242;BME280;22283;42.748;12.732;2022-08-25T05:55:33;97904.97;;;22.88;58.52
36242;BME280;22283;42.748;12.732;2022-08-25T06:00:36;97902.72;;;23.13;57.56
36242;BME280;22283;42.748;12.732;2022-08-25T06:05:38;97913.88;;;23.38;57.79
36242;BME280;22283;42.748;12.732;2022-08-25T06:10:39;97901.81;;;23.75;56.12
36242;BME280;22283;42.748;12.732;2022-08-25T06:15:39;97918.53;;;23.98;54.71
36242;BME280;22283;42.748;12.732;2022-08-25T06:20:40;97908.81;;;24.04;54.59
36242;BME280;22283;42.748;12.732;2022-08-25T06:25:41;97917.22;;;24.42;54.25
36242;BME280;22283;42.748;12.732;2022-08-25T06:30:48;97921.81;;;24.62;52.70
36242;BME280;22283;42.748;12.732;2022-08-25T06:35:52;97920.38;;;24.59;52.03
36242;BME280;22283;42.748;12.732;2022-08-25T06:40:53;97916.22;;;24.70;51.96
36242;BME280;22283;42.748;12.732;2022-08-25T06:45:56;97917.88;;;24.58;52.33
36242;BME280;22283;42.748;12.732;2022-08-25T06:50:56;97910.16;;;24.74;52.19
36242;BME280;22283;42.748;12.732;2022-08-25T06:55:57;97912.69;;;24.89;49.94
36242;BME280;22283;42.748;12.732;2022-08-25T07:01:14;97906.22;;;25.03;50.04
36242;BME280;22283;42.748;12.732;2022-08-25T07:06:16;97909.78;;;24.91;51.00
36242;BME280;22283;42.748;12.732;2022-08-25T07:11:20;97905.41;;;24.76;51.52
36242;BME280;22283;42.748;12.732;2022-08-25T07:16:21;97907.88;;;24.98;50.65
36242;BME280;22283;42.748;12.732;2022-08-25T07:21:24;97905.19;;;25.18;50.93
36242;BME280;22283;42.748;12.732;2022-08-25T07:26:30;97906.22;;;25.17;50.29
36242;BME280;22283;42.748;12.732;2022-08-25T07:31:34;97909.94;;;25.29;49.95
36242;BME280;22283;42.748;12.732;2022-08-25T07:36:34;97906.19;;;25.37;49.69
36242;BME280;22283;42.748;12.732;2022-08-25T07:41:37;97895.69;;;25.60;49.18
36242;BME280;22283;42.748;12.732;2022-08-25T07:46:39;97890.28;;;25.54;48.40
36242;BME280;22283;42.748;12.732;2022-08-25T07:51:40;97891.50;;;25.64;48.12
36242;BME280;22283;42.748;12.732;2022-08-25T07:56:41;97894.69;;;25.55;47.92
36242;BME280;22283;42.748;12.732;2022-08-25T08:01:43;97882.31;;;25.72;47.72
36242;BME280;22283;42.748;12.732;2022-08-25T08:06:44;97876.47;;;25.75;46.73
36242;BME280;22283;42.748;12.732;2022-08-25T08:11:45;97870.09;;;26.01;46.99
36242;BME280;22283;42.748;12.732;2022-08-25T08:16:46;97876.91;;;26.17;46.99
36242;BME280;22283;42.748;12.732;2022-08-25T08:21:47;97866.06;;;26.48;46.16
36242;BME280;22283;42.748;12.732;2022-08-25T08:26:49;97874.56;;;26.84;45.52
36242;BME280;22283;42.748;12.732;2022-08-25T08:31:50;97869.06;;;26.90;45.51
36242;BME280;22283;42.748;12.732;2022-08-25T08:36:51;97861.34;;;26.69;45.25
36242;BME280;22283;42.748;12.732;2022-08-25T08:53:18;97861.03;;;27.02;44.59
36242;BME280;22283;42.748;12.732;2022-08-25T08:58:27;97858.09;;;27.04;45.16
36242;BME280;22283;42.748;12.732;2022-08-25T09:08:35;97845.09;;;27.49;44.34
36242;BME280;22283;42.748;12.732;2022-08-25T09:13:57;97844.84;;;27.69;43.39
36242;BME280;22283;42.748;12.732;2022-08-25T09:34:54;97830.53;;;28.64;41.59
36242;BME280;22283;42.748;12.732;2022-08-25T09:39:55;97823.41;;;28.39;41.92
36242;BME280;22283;42.748;12.732;2022-08-25T09:44:56;97822.94;;;28.66;41.69
36242;BME280;22283;42.748;12.732;2022-08-25T09:49:59;97818.91;;;28.57;40.56
36242;BME280;22283;42.748;12.732;2022-08-25T09:55:24;97811.94;;;28.49;40.82
36242;BME280;22283;42.748;12.732;2022-08-25T10:00:31;97800.81;;;28.86;40.81
36242;BME280;22283;42.748;12.732;2022-08-25T10:11:01;97794.09;;;29.00;40.62
36242;BME280;22283;42.748;12.732;2022-08-25T10:21:12;97790.09;;;29.03;39.54
36242;BME280;22283;42.748;12.732;2022-08-25T10:31:56;97774.38;;;29.33;38.86
36242;BME280;22283;42.748;12.732;2022-08-25T10:37:34;97774.22;;;29.40;38.03
36242;BME280;22283;42.748;12.732;2022-08-25T10:53:27;97746.72;;;30.27;36.12
36242;BME280;22283;42.748;12.732;2022-08-25T11:08:54;97722.50;;;29.85;36.75
36242;BME280;22283;42.748;12.732;2022-08-25T11:14:18;97723.72;;;30.23;35.69
36242;BME280;22283;42.748;12.732;2022-08-25T11:19:40;97712.72;;;30.91;34.87
36242;BME280;22283;42.748;12.732;2022-08-25T11:30:08;97708.09;;;30.91;33.94
36242;BME280;22283;42.748;12.732;2022-08-25T11:35:11;97698.06;;;31.41;33.41
36242;BME280;22283;42.748;12.732;2022-08-25T11:40:29;97688.16;;;31.34;33.10
36242;BME280;22283;42.748;12.732;2022-08-25T11:45:55;97687.13;;;31.41;33.35
36242;BME280;22283;42.748;12.732;2022-08-25T11:51:03;97689.97;;;31.51;32.71
36242;BME280;22283;42.748;12.732;2022-08-25T11:56:50;97689.13;;;31.77;32.77
36242;BME280;22283;42.748;12.732;2022-08-25T12:12:38;97666.53;;;32.19;31.99
36242;BME280;22283;42.748;12.732;2022-08-25T12:18:15;97667.47;;;32.35;31.65
36242;BME280;22283;42.748;12.732;2022-08-25T12:23:16;97669.19;;;32.09;31.94
36242;BME280;22283;42.748;12.732;2022-08-25T12:28:30;97656.19;;;31.89;32.15
36242;BME280;22283;42.748;12.732;2022-08-25T12:38:47;97645.78;;;32.28;31.92
36242;BME280;22283;42.748;12.732;2022-08-25T12:43:51;97641.44;;;32.80;31.28
36242;BME280;22283;42.748;12.732;2022-08-25T12:48:59;97647.84;;;32.43;31.33
36242;BME280;22283;42.748;12.732;2022-08-25T12:59:22;97644.31;;;32.48;30.83
36242;BME280;22283;42.748;12.732;2022-08-25T13:15:12;97618.72;;;32.90;29.83
36242;BME280;22283;42.748;12.732;2022-08-25T13:20:17;97617.72;;;32.96;30.12
36242;BME280;22283;42.748;12.732;2022-08-25T13:25:21;97612.28;;;33.11;30.24
36242;BME280;22283;42.748;12.732;2022-08-25T13:30:34;97608.97;;;33.04;29.96
36242;BME280;22283;42.748;12.732;2022-08-25T13:35:35;97607.25;;;32.88;29.99
36242;BME280;22283;42.748;12.732;2022-08-25T13:40:36;97602.22;;;32.69;30.37
36242;BME280;22283;42.748;12.732;2022-08-25T13:45:40;97601.50;;;32.94;29.49
36242;BME280;22283;42.748;12.732;2022-08-25T13:50:42;97594.16;;;33.05;29.45
36242;BME280;22283;42.748;12.732;2022-08-25T13:55:52;97595.56;;;32.50;30.28
36242;BME280;22283;42.748;12.732;2022-08-25T14:01:14;97595.63;;;32.65;30.30
36242;BME280;22283;42.748;12.732;2022-08-25T14:11:30;97580.38;;;32.90;29.79
36242;BME280;22283;42.748;12.732;2022-08-25T14:16:37;97584.34;;;33.19;29.98
36242;BME280;22283;42.748;12.732;2022-08-25T14:21:39;97580.81;;;32.56;30.35
36242;BME280;22283;42.748;12.732;2022-08-25T14:26:39;97591.47;;;32.47;30.72
36242;BME280;22283;42.748;12.732;2022-08-25T14:31:42;97578.69;;;32.68;30.76
36242;BME280;22283;42.748;12.732;2022-08-25T14:36:44;97581.41;;;32.63;30.56
36242;BME280;22283;42.748;12.732;2022-08-25T14:41:45;97571.09;;;32.91;30.96
36242;BME280;22283;42.748;12.732;2022-08-25T14:46:54;97564.28;;;33.03;30.24
36242;BME280;22283;42.748;12.732;2022-08-25T14:52:03;97571.56;;;32.77;30.22
36242;BME280;22283;42.748;12.732;2022-08-25T14:57:06;97569.97;;;32.87;30.74
36242;BME280;22283;42.748;12.732;2022-08-25T15:02:06;97560.03;;;32.70;30.85
36242;BME280;22283;42.748;12.732;2022-08-25T15:07:10;97557.78;;;32.52;31.22
36242;BME280;22283;42.748;12.732;2022-08-25T15:12:33;97574.81;;;32.64;31.45
36242;BME280;22283;42.748;12.732;2022-08-25T15:17:33;97563.72;;;32.39;31.09
36242;BME280;22283;42.748;12.732;2022-08-25T15:22:34;97571.66;;;32.35;31.92
36242;BME280;22283;42.748;12.732;2022-08-25T15:27:35;97558.72;;;32.25;32.01
36242;BME280;22283;42.748;12.732;2022-08-25T15:32:36;97558.66;;;32.15;32.83
36242;BME280;22283;42.748;12.732;2022-08-25T15:37:37;97558.50;;;31.90;33.58
36242;BME280;22283;42.748;12.732;2022-08-25T15:42:39;97561.59;;;31.66;33.87
36242;BME280;22283;42.748;12.732;2022-08-25T15:47:40;97557.25;;;31.70;34.05
36242;BME280;22283;42.748;12.732;2022-08-25T15:52:41;97556.72;;;31.73;33.90
36242;BME280;22283;42.748;12.732;2022-08-25T15:57:43;97557.75;;;31.67;34.12
36242;BME280;22283;42.748;12.732;2022-08-25T16:02:43;97566.59;;;31.42;34.21
36242;BME280;22283;42.748;12.732;2022-08-25T16:07:44;97553.09;;;31.30;34.37
36242;BME280;22283;42.748;12.732;2022-08-25T16:12:45;97558.59;;;31.08;34.95
36242;BME280;22283;42.748;12.732;2022-08-25T16:17:46;97542.97;;;31.04;34.80
36242;BME280;22283;42.748;12.732;2022-08-25T16:22:47;97547.28;;;31.00;34.88
36242;BME280;22283;42.748;12.732;2022-08-25T16:27:48;97542.50;;;31.12;35.16
36242;BME280;22283;42.748;12.732;2022-08-25T16:32:49;97551.69;;;31.01;35.44
36242;BME280;22283;42.748;12.732;2022-08-25T16:37:50;97550.81;;;30.95;35.43
36242;BME280;22283;42.748;12.732;2022-08-25T16:42:51;97552.97;;;30.93;35.90
36242;BME280;22283;42.748;12.732;2022-08-25T16:47:52;97559.59;;;30.75;36.23
36242;BME280;22283;42.748;12.732;2022-08-25T16:52:53;97555.50;;;30.56;35.79
36242;BME280;22283;42.748;12.732;2022-08-25T16:58:12;97562.91;;;30.33;36.83
36242;BME280;22283;42.748;12.732;2022-08-25T17:03:13;97566.38;;;30.12;38.11
36242;BME280;22283;42.748;12.732;2022-08-25T17:08:14;97556.03;;;30.14;37.31
36242;BME280;22283;42.748;12.732;2022-08-25T17:13:30;97558.63;;;30.04;38.16
36242;BME280;22283;42.748;12.732;2022-08-25T17:18:31;97564.19;;;29.92;38.51
36242;BME280;22283;42.748;12.732;2022-08-25T17:23:33;97568.16;;;29.84;38.70
36242;BME280;22283;42.748;12.732;2022-08-25T17:28:34;97570.91;;;29.68;39.52
36242;BME280;22283;42.748;12.732;2022-08-25T17:33:35;97568.63;;;29.48;39.31
36242;BME280;22283;42.748;12.732;2022-08-25T17:38:36;97581.50;;;29.35;41.09
36242;BME280;22283;42.748;12.732;2022-08-25T17:43:40;97582.72;;;29.11;42.06
36242;BME280;22283;42.748;12.732;2022-08-25T17:48:42;97594.72;;;28.86;42.71
36242;BME280;22283;42.748;12.732;2022-08-25T17:53:43;97594.56;;;28.64;43.61
36242;BME280;22283;42.748;12.732;2022-08-25T17:58:44;97605.25;;;28.42;44.01
36242;BME280;22283;42.748;12.732;2022-08-25T18:03:45;97609.84;;;28.30;44.34
36242;BME280;22283;42.748;12.732;2022-08-25T18:08:46;97608.22;;;28.17;44.18
36242;BME280;22283;42.748;12.732;2022-08-25T18:13:47;97612.72;;;28.00;44.86
36242;BME280;22283;42.748;12.732;2022-08-25T18:18:48;97614.47;;;27.83;45.32
36242;BME280;22283;42.748;12.732;2022-08-25T18:23:49;97633.44;;;27.71;45.38
36242;BME280;22283;42.748;12.732;2022-08-25T18:28:50;97634.50;;;27.70;45.39
36242;BME280;22283;42.748;12.732;2022-08-25T18:33:51;97640.91;;;27.64;45.39
36242;BME280;22283;42.748;12.732;2022-08-25T18:38:51;97637.91;;;27.54;45.69
36242;BME280;22283;42.748;12.732;2022-08-25T18:44:11;97645.78;;;27.43;45.78
36242;BME280;22283;42.748;12.732;2022-08-25T18:49:12;97655.94;;;27.36;46.04
36242;BME280;22283;42.748;12.732;2022-08-25T18:54:17;97655.03;;;27.24;46.42
36242;BME280;22283;42.748;12.732;2022-08-25T18:59:18;97652.94;;;27.08;46.87
36242;BME280;22283;42.748;12.732;2022-08-25T19:04:19;97646.94;;;26.87;47.46
36242;BME280;22283;42.748;12.732;2022-08-25T19:09:19;97654.19;;;26.75;47.33
36242;BME280;22283;42.748;12.732;2022-08-25T19:14:20;97655.19;;;26.62;48.17
36242;BME280;22283;42.748;12.732;2022-08-25T19:19:21;97668.66;;;26.51;48.43
36242;BME280;22283;42.748;12.732;2022-08-25T19:24:21;97667.03;;;26.50;48.45
36242;BME280;22283;42.748;12.732;2022-08-25T19:29:22;97660.69;;;26.56;48.20
36242;BME280;22283;42.748;12.732;2022-08-25T19:34:26;97672.47;;;26.43;48.76
36242;BME280;22283;42.748;12.732;2022-08-25T19:39:28;97665.97;;;26.26;49.21
36242;BME280;22283;42.748;12.732;2022-08-25T19:44:29;97670.69;;;26.12;49.80
36242;BME280;22283;42.748;12.732;2022-08-25T19:49:33;97665.97;;;26.00;49.87
36242;BME280;22283;42.748;12.732;2022-08-25T19:54:40;97670.47;;;25.88;50.32
36242;BME280;22283;42.748;12.732;2022-08-25T19:59:43;97673.69;;;25.72;50.97
36242;BME280;22283;42.748;12.732;2022-08-25T20:04:48;97664.44;;;25.55;51.55
36242;BME280;22283;42.748;12.732;2022-08-25T20:09:50;97671.16;;;25.45;51.88
36242;BME280;22283;42.748;12.732;2022-08-25T20:14:52;97673.69;;;25.40;52.08
36242;BME280;22283;42.748;12.732;2022-08-25T20:19:55;97662.28;;;25.38;52.33
36242;BME280;22283;42.748;12.732;2022-08-25T20:25:00;97683.72;;;25.33;52.66
36242;BME280;22283;42.748;12.732;2022-08-25T20:30:03;97697.09;;;25.28;52.80
36242;BME280;22283;42.748;12.732;2022-08-25T20:35:08;97699.25;;;25.13;53.65
36242;BME280;22283;42.748;12.732;2022-08-25T20:40:15;97697.19;;;25.01;53.79
36242;BME280;22283;42.748;12.732;2022-08-25T20:45:18;97701.78;;;25.01;54.52
36242;BME280;22283;42.748;12.732;2022-08-25T20:50:21;97703.84;;;25.06;54.44
36242;BME280;22283;42.748;12.732;2022-08-25T20:55:24;97702.81;;;25.00;54.64
36242;BME280;22283;42.748;12.732;2022-08-25T21:00:27;97702.19;;;24.98;54.44
36242;BME280;22283;42.748;12.732;2022-08-25T21:05:27;97716.00;;;24.83;54.71
36242;BME280;22283;42.748;12.732;2022-08-25T21:10:28;97719.19;;;24.67;55.20
36242;BME280;22283;42.748;12.732;2022-08-25T21:15:29;97725.88;;;24.51;55.63
36242;BME280;22283;42.748;12.732;2022-08-25T21:20:29;97732.53;;;24.48;55.95
36242;BME280;22283;42.748;12.732;2022-08-25T21:25:30;97742.28;;;24.49;55.87
36242;BME280;22283;42.748;12.732;2022-08-25T21:30:30;97743.56;;;24.40;56.21
36242;BME280;22283;42.748;12.732;2022-08-25T21:35:31;97738.13;;;24.47;55.81
36242;BME280;22283;42.748;12.732;2022-08-25T21:40:35;97742.47;;;24.35;55.81
36242;BME280;22283;42.748;12.732;2022-08-25T21:45:40;97750.19;;;24.04;56.60
36242;BME280;22283;42.748;12.732;2022-08-25T21:50:42;97757.66;;;23.89;57.12
36242;BME280;22283;42.748;12.732;2022-08-25T21:55:42;97761.19;;;23.96;56.83
36242;BME280;22283;42.748;12.732;2022-08-25T22:00:43;97754.34;;;24.00;56.90
36242;BME280;22283;42.748;12.732;2022-08-25T22:05:44;97748.53;;;24.03;57.06
36242;BME280;22283;42.748;12.732;2022-08-25T22:10:44;97749.97;;;23.93;57.27
36242;BME280;22283;42.748;12.732;2022-08-25T22:15:45;97748.09;;;23.87;57.80
36242;BME280;22283;42.748;12.732;2022-08-25T22:20:47;97742.91;;;23.98;57.16
36242;BME280;22283;42.748;12.732;2022-08-25T22:25:48;97757.22;;;23.86;57.31
36242;BME280;22283;42.748;12.732;2022-08-25T22:30:49;97757.19;;;23.04;58.84
36242;BME280;22283;42.748;12.732;2022-08-25T22:35:50;97756.69;;;22.94;59.80
36242;BME280;22283;42.748;12.732;2022-08-25T22:40:50;97749.34;;;23.23;59.72
36242;BME280;22283;42.748;12.732;2022-08-25T22:45:59;97750.66;;;23.40;59.32
36242;BME280;22283;42.748;12.732;2022-08-25T22:51:09;97753.59;;;23.59;58.27
36242;BME280;22283;42.748;12.732;2022-08-25T22:56:11;97752.72;;;23.38;58.68
36242;BME280;22283;42.748;12.732;2022-08-25T23:01:15;97744.56;;;23.18;58.83
36242;BME280;22283;42.748;12.732;2022-08-25T23:06:20;97754.31;;;22.84;60.32
36242;BME280;22283;42.748;12.732;2022-08-25T23:11:22;97757.31;;;22.62;61.13
36242;BME280;22283;42.748;12.732;2022-08-25T23:16:23;97757.63;;;22.80;60.40
36242;BME280;22283;42.748;12.732;2022-08-25T23:21:25;97752.22;;;22.80;60.52
36242;BME280;22283;42.748;12.732;2022-08-25T23:26:45;97751.44;;;22.86;61.60
36242;BME280;22283;42.748;12.732;2022-08-25T23:31:46;97741.66;;;23.20;60.02
36242;BME280;22283;42.748;12.732;2022-08-25T23:36:47;97738.97;;;23.26;59.24
36242;BME280;22283;42.748;12.732;2022-08-25T23:41:48;97732.13;;;23.24;59.26
36242;BME280;22283;42.748;12.732;2022-08-25T23:46:49;97730.25;;;23.18;59.36
36242;BME280;22283;42.748;12.732;2022-08-25T23:51:51;97727.47;;;22.98;59.66
36242;BME280;22283;42.748;12.732;2022-08-25T23:56:52;97736.91;;;22.87;60.17
